EDTY METAR and TAF | Updated Today

EDTY METAR

Adolf Würth Airport

Observation time: 26 min. ago

EDTY 080650Z 09002KT 9999 -RA SCT029 SCT035 OVC044 01/00 Q1001

Need help? Read our tutorial on how to read METARs or read the parsed version below.

Adolf Würth Airport (EDTY) METAR

  • Weather conditions on Wed, 08 Dec 2021 06:50:00 +0000 (26 min. ago):
  • Present conditions: Light rain
  • Clouds: Scattered at 884 meters; scattered at 1067 meters; overcast sky at 1341 meters
  • Visibility: Greater than 10 km
  • Wind: 90 degrees at 2 knots
  • Temperature: 1 celsius
  • Dew point: 0 celsius
  • Pressure: 1001 millibars
  • Remarks: None


Useful to know...

EDTY TAF

Adolf Würth Airport

TAF EDTY 080500Z 0806/0815 16003KT 9999 BKN030 BECMG 0813/0815 BKN008
Observation time: 2:16 hr. ago
Need help? Read our tutorial on how to read TAFs or read the parsed version below.

Parsed version of TAF for Adolf Würth Airport (EDTY)

  • From 08 December at 06:00 UTC, to day 08 of the month at 15:00 UTC
  • Clouds: Broken sky at 914 meters
  • Visibility: Greater than 10 km
  • Wind: 160 degrees at 3
  • Expected to arise soon, from 08 December at 13:00 UTC, to day 08 of the month at 15:00 UTC
  • Clouds: Broken sky at 244 meters

Airports near EDTY

EDDS Weather
IATA: STR
Region: Stuttgart

Stuttgart Airport

Found in our database
ETIK Weather
Region: Storck Barracks

Illesheim Air Base

Not found in our database